<?xml version="1.0" encoding="UTF-8" standalone="no" ?><gpx xmlns="http://www.topografix.com/GPX/1/1" xmlns:gpxx="http://www.garmin.com/xmlschemas/GpxExtensions/v3" xmlns:wptx1="http://www.garmin.com/xmlschemas/WaypointExtension/v1" xmlns:gpxtpx="http://www.garmin.com/xmlschemas/TrackPointExtension/v1" creator="GuideVTT.com" version="1.1" xmlns:xsi="http://www.w3.org/2001/XMLSchema-instance" xsi:schemaLocation="http://www.topografix.com/GPX/1/1 http://www.topografix.com/GPX/1/1/gpx.xsd http://www.garmin.com/xmlschemas/GpxExtensions/v3 http://www8.garmin.com/xmlschemas/GpxExtensionsv3.xsd http://www.garmin.com/xmlschemas/WaypointExtension/v1 http://www8.garmin.com/xmlschemas/WaypointExtensionv1.xsd http://www.garmin.com/xmlschemas/TrackPointExtension/v1 http://www.garmin.com/xmlschemas/TrackPointExtensionv1.xsd">
<metadata><link href="http://www.garmin.com"><text>Garmin International</text></link><time>2013-06-22T15:13:50Z</time></metadata>
<trk><name>ne_tn_751.gpx</name><extensions><gpxx:TrackExtension><gpxx:DisplayColor>Cyan</gpxx:DisplayColor></gpxx:TrackExtension></extensions><trkseg>
<trkpt lat="47.09808180" lon="6.82408693"><ele></ele><time>2014-4-24T11:33:6Z</time></trkpt>
<trkpt lat="47.09880544" lon="6.82315655"><ele></ele><time>2014-4-24T11:33:9Z</time></trkpt>
<trkpt lat="47.09952236" lon="6.82433387"><ele></ele><time>2014-4-24T11:33:12Z</time></trkpt>
<trkpt lat="47.10025796" lon="6.82564274"><ele></ele><time>2014-4-24T11:33:15Z</time></trkpt>
<trkpt lat="47.10093880" lon="6.82680737"><ele></ele><time>2014-4-24T11:33:18Z</time></trkpt>
<trkpt lat="47.10143778" lon="6.82760525"><ele></ele><time>2014-4-24T11:33:21Z</time></trkpt>
<trkpt lat="47.10206401" lon="6.82865199"><ele></ele><time>2014-4-24T11:33:24Z</time></trkpt>
<trkpt lat="47.10265460" lon="6.82976502"><ele></ele><time>2014-4-24T11:33:27Z</time></trkpt>
<trkpt lat="47.10306215" lon="6.83028734"><ele></ele><time>2014-4-24T11:33:30Z</time></trkpt>
<trkpt lat="47.10357003" lon="6.83107201"><ele></ele><time>2014-4-24T11:33:33Z</time></trkpt>
<trkpt lat="47.10397959" lon="6.83197637"><ele></ele><time>2014-4-24T11:33:36Z</time></trkpt>
<trkpt lat="47.10469604" lon="6.83137542"><ele></ele><time>2014-4-24T11:33:39Z</time></trkpt>
<trkpt lat="47.10554781" lon="6.83085197"><ele></ele><time>2014-4-24T11:33:42Z</time></trkpt>
<trkpt lat="47.10621126" lon="6.83043604"><ele></ele><time>2014-4-24T11:33:45Z</time></trkpt>
<trkpt lat="47.10653513" lon="6.83044553"><ele></ele><time>2014-4-24T11:33:48Z</time></trkpt>
<trkpt lat="47.10689701" lon="6.83083667"><ele></ele><time>2014-4-24T11:33:51Z</time></trkpt>
<trkpt lat="47.10725777" lon="6.83101702"><ele></ele><time>2014-4-24T11:33:54Z</time></trkpt>
<trkpt lat="47.10774355" lon="6.83102469"><ele></ele><time>2014-4-24T11:33:57Z</time></trkpt>
<trkpt lat="47.10810369" lon="6.83108648"><ele></ele><time>2014-4-24T11:34:0Z</time></trkpt>
<trkpt lat="47.10878965" lon="6.83152666"><ele></ele><time>2014-4-24T11:34:3Z</time></trkpt>
<trkpt lat="47.10946675" lon="6.83199330"><ele></ele><time>2014-4-24T11:34:6Z</time></trkpt>
<trkpt lat="47.11005418" lon="6.83251366"><ele></ele><time>2014-4-24T11:34:9Z</time></trkpt>
<trkpt lat="47.11050669" lon="6.83303557"><ele></ele><time>2014-4-24T11:34:12Z</time></trkpt>
<trkpt lat="47.11127540" lon="6.83381742"><ele></ele><time>2014-4-24T11:34:15Z</time></trkpt>
<trkpt lat="47.11195450" lon="6.83466619"><ele></ele><time>2014-4-24T11:34:18Z</time></trkpt>
<trkpt lat="47.11245432" lon="6.83563559"><ele></ele><time>2014-4-24T11:34:21Z</time></trkpt>
<trkpt lat="47.11300607" lon="6.83793520"><ele></ele><time>2014-4-24T11:34:24Z</time></trkpt>
<trkpt lat="47.11336346" lon="6.83919612"><ele></ele><time>2014-4-24T11:34:27Z</time></trkpt>
<trkpt lat="47.11387540" lon="6.84077155"><ele></ele><time>2014-4-24T11:34:30Z</time></trkpt>
<trkpt lat="47.11428803" lon="6.84228224"><ele></ele><time>2014-4-24T11:34:33Z</time></trkpt>
<trkpt lat="47.11451665" lon="6.84300441"><ele></ele><time>2014-4-24T11:34:36Z</time></trkpt>
<trkpt lat="47.11496182" lon="6.84385594"><ele></ele><time>2014-4-24T11:34:39Z</time></trkpt>
<trkpt lat="47.11551553" lon="6.84482487"><ele></ele><time>2014-4-24T11:34:42Z</time></trkpt>
<trkpt lat="47.11609221" lon="6.84501614"><ele></ele><time>2014-4-24T11:34:45Z</time></trkpt>
<trkpt lat="47.11668790" lon="6.84540485"><ele></ele><time>2014-4-24T11:34:48Z</time></trkpt>
<trkpt lat="47.11740228" lon="6.84613486"><ele></ele><time>2014-4-24T11:34:51Z</time></trkpt>
<trkpt lat="47.11776241" lon="6.84619677"><ele></ele><time>2014-4-24T11:34:54Z</time></trkpt>
<trkpt lat="47.11826509" lon="6.84599355"><ele></ele><time>2014-4-24T11:34:57Z</time></trkpt>
<trkpt lat="47.11951992" lon="6.84512311"><ele></ele><time>2014-4-24T11:35:0Z</time></trkpt>
<trkpt lat="47.11969218" lon="6.84538476"><ele></ele><time>2014-4-24T11:35:3Z</time></trkpt>
<trkpt lat="47.12024723" lon="6.84661734"><ele></ele><time>2014-4-24T11:35:6Z</time></trkpt>
<trkpt lat="47.12065782" lon="6.84774611"><ele></ele><time>2014-4-24T11:35:9Z</time></trkpt>
<trkpt lat="47.12106732" lon="6.84866407"><ele></ele><time>2014-4-24T11:35:12Z</time></trkpt>
<trkpt lat="47.12160970" lon="6.84918522"><ele></ele><time>2014-4-24T11:35:15Z</time></trkpt>
<trkpt lat="47.12219536" lon="6.84937646"><ele></ele><time>2014-4-24T11:35:18Z</time></trkpt>
<trkpt lat="47.12272436" lon="6.84904118"><ele></ele><time>2014-4-24T11:35:21Z</time></trkpt>
<trkpt lat="47.12327371" lon="6.84916692"><ele></ele><time>2014-4-24T11:35:24Z</time></trkpt>
<trkpt lat="47.12376841" lon="6.84916147"><ele></ele><time>2014-4-24T11:35:27Z</time></trkpt>
<trkpt lat="47.12443334" lon="6.84902237"><ele></ele><time>2014-4-24T11:35:30Z</time></trkpt>
<trkpt lat="47.12488435" lon="6.84926781"><ele></ele><time>2014-4-24T11:35:33Z</time></trkpt>
<trkpt lat="47.12525617" lon="6.84985678"><ele></ele><time>2014-4-24T11:35:36Z</time></trkpt>
<trkpt lat="47.12570136" lon="6.85072172"><ele></ele><time>2014-4-24T11:35:39Z</time></trkpt>
<trkpt lat="47.12634361" lon="6.85142636"><ele></ele><time>2014-4-24T11:35:42Z</time></trkpt>
<trkpt lat="47.12688739" lon="6.85222435"><ele></ele><time>2014-4-24T11:35:45Z</time></trkpt>
<trkpt lat="47.12747373" lon="6.85254742"><ele></ele><time>2014-4-24T11:35:48Z</time></trkpt>
<trkpt lat="47.12814866" lon="6.85260594"><ele></ele><time>2014-4-24T11:35:51Z</time></trkpt>
<trkpt lat="47.12873492" lon="6.85291584"><ele></ele><time>2014-4-24T11:35:54Z</time></trkpt>
<trkpt lat="47.12949188" lon="6.85318435"><ele></ele><time>2014-4-24T11:35:57Z</time></trkpt>
<trkpt lat="47.13021346" lon="6.85357187"><ele></ele><time>2014-4-24T11:36:0Z</time></trkpt>
<trkpt lat="47.13084409" lon="6.85376269"><ele></ele><time>2014-4-24T11:36:3Z</time></trkpt>
<trkpt lat="47.13129208" lon="6.85341511"><ele></ele><time>2014-4-24T11:36:6Z</time></trkpt>
<trkpt lat="47.13161696" lon="6.85362245"><ele></ele><time>2014-4-24T11:36:9Z</time></trkpt>
<trkpt lat="47.13233222" lon="6.85453730"><ele></ele><time>2014-4-24T11:36:12Z</time></trkpt>
<trkpt lat="47.13279356" lon="6.85504633"><ele></ele><time>2014-4-24T11:36:15Z</time></trkpt>
<trkpt lat="47.13346390" lon="6.85597489"><ele></ele><time>2014-4-24T11:36:18Z</time></trkpt>
<trkpt lat="47.13383595" lon="6.85661672"><ele></ele><time>2014-4-24T11:36:21Z</time></trkpt>
<trkpt lat="47.13433506" lon="6.85748127"><ele></ele><time>2014-4-24T11:36:24Z</time></trkpt>
<trkpt lat="47.13483502" lon="6.85851718"><ele></ele><time>2014-4-24T11:36:27Z</time></trkpt>
<trkpt lat="47.13542399" lon="6.85936761"><ele></ele><time>2014-4-24T11:36:30Z</time></trkpt>
<trkpt lat="47.13551791" lon="6.86015750"><ele></ele><time>2014-4-24T11:36:33Z</time></trkpt>
<trkpt lat="47.13588372" lon="6.86135308"><ele></ele><time>2014-4-24T11:36:36Z</time></trkpt>
<trkpt lat="47.13637307" lon="6.86207281"><ele></ele><time>2014-4-24T11:36:39Z</time></trkpt>
<trkpt lat="47.13633874" lon="6.86240273"><ele></ele><time>2014-4-24T11:36:42Z</time></trkpt>
<trkpt lat="47.13647690" lon="6.86304716"><ele></ele><time>2014-4-24T11:36:45Z</time></trkpt>
<trkpt lat="47.13679606" lon="6.86391374"><ele></ele><time>2014-4-24T11:36:48Z</time></trkpt>
<trkpt lat="47.13738761" lon="6.86529151"><ele></ele><time>2014-4-24T11:36:51Z</time></trkpt>
<trkpt lat="47.13770735" lon="6.86627675"><ele></ele><time>2014-4-24T11:36:54Z</time></trkpt>
<trkpt lat="47.13789379" lon="6.86759299"><ele></ele><time>2014-4-24T11:36:57Z</time></trkpt>
<trkpt lat="47.13789961" lon="6.86876614"><ele></ele><time>2014-4-24T11:37:0Z</time></trkpt>
<trkpt lat="47.13880116" lon="6.87099757"><ele></ele><time>2014-4-24T11:37:3Z</time></trkpt>
<trkpt lat="47.13890764" lon="6.87252561"><ele></ele><time>2014-4-24T11:37:6Z</time></trkpt>
<trkpt lat="47.13926199" lon="6.87324691"><ele></ele><time>2014-4-24T11:37:9Z</time></trkpt>
<trkpt lat="47.13936352" lon="6.87377314"><ele></ele><time>2014-4-24T11:37:12Z</time></trkpt>
<trkpt lat="47.13949301" lon="6.87449682"><ele></ele><time>2014-4-24T11:37:15Z</time></trkpt>
<trkpt lat="47.13995529" lon="6.87521700"><ele></ele><time>2014-4-24T11:37:18Z</time></trkpt>
<trkpt lat="47.14013841" lon="6.87587421"><ele></ele><time>2014-4-24T11:37:21Z</time></trkpt>
<trkpt lat="47.14040376" lon="6.87679422"><ele></ele><time>2014-4-24T11:37:24Z</time></trkpt>
<trkpt lat="47.14099837" lon="6.87698573"><ele></ele><time>2014-4-24T11:37:27Z</time></trkpt>
<trkpt lat="47.14153773" lon="6.87691416"><ele></ele><time>2014-4-24T11:37:30Z</time></trkpt>
<trkpt lat="47.14203500" lon="6.87743627"><ele></ele><time>2014-4-24T11:37:33Z</time></trkpt>
<trkpt lat="47.14225955" lon="6.87736800"><ele></ele><time>2014-4-24T11:37:36Z</time></trkpt>
<trkpt lat="47.14274333" lon="6.87696743"><ele></ele><time>2014-4-24T11:37:39Z</time></trkpt>
<trkpt lat="47.14333407" lon="6.87636797"><ele></ele><time>2014-4-24T11:37:42Z</time></trkpt>
<trkpt lat="47.14391802" lon="6.87621682"><ele></ele><time>2014-4-24T11:37:45Z</time></trkpt>
<trkpt lat="47.14445743" lon="6.87615842"><ele></ele><time>2014-4-24T11:37:48Z</time></trkpt>
<trkpt lat="47.14468352" lon="6.87640654"><ele></ele><time>2014-4-24T11:37:51Z</time></trkpt>
<trkpt lat="47.14490652" lon="6.87602187"><ele></ele><time>2014-4-24T11:37:54Z</time></trkpt>
<trkpt lat="47.14489107" lon="6.87470363"><ele></ele><time>2014-4-24T11:37:57Z</time></trkpt>
<trkpt lat="47.14538661" lon="6.87303722"><ele></ele><time>2014-4-24T11:38:0Z</time></trkpt>
<trkpt lat="47.14537087" lon="6.87166624"><ele></ele><time>2014-4-24T11:38:3Z</time></trkpt>
<trkpt lat="47.14555325" lon="6.87034590"><ele></ele><time>2014-4-24T11:38:6Z</time></trkpt>
<trkpt lat="47.14576130" lon="6.86876159"><ele></ele><time>2014-4-24T11:38:9Z</time></trkpt>
<trkpt lat="47.14558739" lon="6.86815697"><ele></ele><time>2014-4-24T11:38:12Z</time></trkpt>
<trkpt lat="47.14517714" lon="6.86705388"><ele></ele><time>2014-4-24T11:38:15Z</time></trkpt>
<trkpt lat="47.14503763" lon="6.86613249"><ele></ele><time>2014-4-24T11:38:18Z</time></trkpt>
<trkpt lat="47.14471559" lon="6.86468570"><ele></ele><time>2014-4-24T11:38:21Z</time></trkpt>
<trkpt lat="47.14443215" lon="6.86376587"><ele></ele><time>2014-4-24T11:38:24Z</time></trkpt>
<trkpt lat="47.14398575" lon="6.86263686"><ele></ele><time>2014-4-24T11:38:27Z</time></trkpt>
<trkpt lat="47.14329363" lon="6.86094362"><ele></ele><time>2014-4-24T11:38:30Z</time></trkpt>
<trkpt lat="47.14433535" lon="6.86060279"><ele></ele><time>2014-4-24T11:38:33Z</time></trkpt>
<trkpt lat="47.14581906" lon="6.86050767"><ele></ele><time>2014-4-24T11:38:36Z</time></trkpt>
<trkpt lat="47.14779429" lon="6.85977437"><ele></ele><time>2014-4-24T11:38:39Z</time></trkpt>
<trkpt lat="47.14913110" lon="6.85908748"><ele></ele><time>2014-4-24T11:38:42Z</time></trkpt>
<trkpt lat="47.14863274" lon="6.85836771"><ele></ele><time>2014-4-24T11:38:45Z</time></trkpt>
<trkpt lat="47.14818941" lon="6.85785830"><ele></ele><time>2014-4-24T11:38:48Z</time></trkpt>
<trkpt lat="47.14777966" lon="6.85687390"><ele></ele><time>2014-4-24T11:38:51Z</time></trkpt>
<trkpt lat="47.14768431" lon="6.85580697"><ele></ele><time>2014-4-24T11:38:54Z</time></trkpt>
<trkpt lat="47.14763472" lon="6.85489777"><ele></ele><time>2014-4-24T11:38:57Z</time></trkpt>
<trkpt lat="47.14740410" lon="6.85376641"><ele></ele><time>2014-4-24T11:39:0Z</time></trkpt>
<trkpt lat="47.14717494" lon="6.85292510"><ele></ele><time>2014-4-24T11:39:3Z</time></trkpt>
<trkpt lat="47.14644437" lon="6.85253756"><ele></ele><time>2014-4-24T11:39:6Z</time></trkpt>
<trkpt lat="47.14577776" lon="6.85234709"><ele></ele><time>2014-4-24T11:39:9Z</time></trkpt>
<trkpt lat="47.14514579" lon="6.85189257"><ele></ele><time>2014-4-24T11:39:12Z</time></trkpt>
<trkpt lat="47.14437788" lon="6.85124179"><ele></ele><time>2014-4-24T11:39:15Z</time></trkpt>
<trkpt lat="47.14360132" lon="6.85065704"><ele></ele><time>2014-4-24T11:39:18Z</time></trkpt>
<trkpt lat="47.14297833" lon="6.85020246"><ele></ele><time>2014-4-24T11:39:21Z</time></trkpt>
<trkpt lat="47.14211316" lon="6.84988238"><ele></ele><time>2014-4-24T11:39:24Z</time></trkpt>
<trkpt lat="47.14144655" lon="6.84969197"><ele></ele><time>2014-4-24T11:39:27Z</time></trkpt>
<trkpt lat="47.14094739" lon="6.84882738"><ele></ele><time>2014-4-24T11:39:30Z</time></trkpt>
<trkpt lat="47.14044768" lon="6.84785734"><ele></ele><time>2014-4-24T11:39:33Z</time></trkpt>
<trkpt lat="47.14003784" lon="6.84687315"><ele></ele><time>2014-4-24T11:39:36Z</time></trkpt>
<trkpt lat="47.13927567" lon="6.84734297"><ele></ele><time>2014-4-24T11:39:39Z</time></trkpt>
<trkpt lat="47.13846880" lon="6.84786599"><ele></ele><time>2014-4-24T11:39:42Z</time></trkpt>
<trkpt lat="47.13806607" lon="6.84826590"><ele></ele><time>2014-4-24T11:39:45Z</time></trkpt>
<trkpt lat="47.13716661" lon="6.84827582"><ele></ele><time>2014-4-24T11:39:48Z</time></trkpt>
<trkpt lat="47.13680453" lon="6.84783162"><ele></ele><time>2014-4-24T11:39:51Z</time></trkpt>
<trkpt lat="47.13620444" lon="6.84658596"><ele></ele><time>2014-4-24T11:39:54Z</time></trkpt>
<trkpt lat="47.13579357" lon="6.84540415"><ele></ele><time>2014-4-24T11:39:57Z</time></trkpt>
<trkpt lat="47.13534671" lon="6.84422275"><ele></ele><time>2014-4-24T11:40:0Z</time></trkpt>
<trkpt lat="47.13493575" lon="6.84302779"><ele></ele><time>2014-4-24T11:40:3Z</time></trkpt>
<trkpt lat="47.13447926" lon="6.84172790"><ele></ele><time>2014-4-24T11:40:6Z</time></trkpt>
<trkpt lat="47.13397771" lon="6.84041536"><ele></ele><time>2014-4-24T11:40:9Z</time></trkpt>
<trkpt lat="47.13360412" lon="6.83949685"><ele></ele><time>2014-4-24T11:40:12Z</time></trkpt>
<trkpt lat="47.13315268" lon="6.83917237"><ele></ele><time>2014-4-24T11:40:15Z</time></trkpt>
<trkpt lat="47.13252586" lon="6.83799310"><ele></ele><time>2014-4-24T11:40:18Z</time></trkpt>
<trkpt lat="47.13215253" lon="6.83712734"><ele></ele><time>2014-4-24T11:40:21Z</time></trkpt>
<trkpt lat="47.13174371" lon="6.83635427"><ele></ele><time>2014-4-24T11:40:24Z</time></trkpt>
<trkpt lat="47.13125379" lon="6.83555576"><ele></ele><time>2014-4-24T11:40:27Z</time></trkpt>
<trkpt lat="47.13120535" lon="6.83489727"><ele></ele><time>2014-4-24T11:40:30Z</time></trkpt>
<trkpt lat="47.13137182" lon="6.83405183"><ele></ele><time>2014-4-24T11:40:33Z</time></trkpt>
<trkpt lat="47.13079409" lon="6.83366294"><ele></ele><time>2014-4-24T11:40:36Z</time></trkpt>
<trkpt lat="47.13029931" lon="6.83365534"><ele></ele><time>2014-4-24T11:40:39Z</time></trkpt>
<trkpt lat="47.12966354" lon="6.83420292"><ele></ele><time>2014-4-24T11:40:42Z</time></trkpt>
<trkpt lat="47.12849387" lon="6.83243682"><ele></ele><time>2014-4-24T11:40:45Z</time></trkpt>
<trkpt lat="47.12799917" lon="6.83244242"><ele></ele><time>2014-4-24T11:40:48Z</time></trkpt>
<trkpt lat="47.12749338" lon="6.83205275"><ele></ele><time>2014-4-24T11:40:51Z</time></trkpt>
<trkpt lat="47.12722459" lon="6.83225349"><ele></ele><time>2014-4-24T11:40:54Z</time></trkpt>
<trkpt lat="47.12687484" lon="6.83245514"><ele></ele><time>2014-4-24T11:40:57Z</time></trkpt>
<trkpt lat="47.12628741" lon="6.83193461"><ele></ele><time>2014-4-24T11:41:0Z</time></trkpt>
<trkpt lat="47.12556784" lon="6.83194276"><ele></ele><time>2014-4-24T11:41:3Z</time></trkpt>
<trkpt lat="47.12493856" lon="6.83201578"><ele></ele><time>2014-4-24T11:41:6Z</time></trkpt>
<trkpt lat="47.12434870" lon="6.83103404"><ele></ele><time>2014-4-24T11:41:9Z</time></trkpt>
<trkpt lat="47.12366406" lon="6.83084412"><ele></ele><time>2014-4-24T11:41:12Z</time></trkpt>
<trkpt lat="47.12278020" lon="6.83210611"><ele></ele><time>2014-4-24T11:41:15Z</time></trkpt>
<trkpt lat="47.12215544" lon="6.83303567"><ele></ele><time>2014-4-24T11:41:18Z</time></trkpt>
<trkpt lat="47.12120132" lon="6.83291468"><ele></ele><time>2014-4-24T11:41:21Z</time></trkpt>
<trkpt lat="47.12012783" lon="6.83233381"><ele></ele><time>2014-4-24T11:41:24Z</time></trkpt>
<trkpt lat="47.11922385" lon="6.83148749"><ele></ele><time>2014-4-24T11:41:27Z</time></trkpt>
<trkpt lat="47.11836379" lon="6.83044304"><ele></ele><time>2014-4-24T11:41:30Z</time></trkpt>
<trkpt lat="47.11731378" lon="6.82920312"><ele></ele><time>2014-4-24T11:41:33Z</time></trkpt>
<trkpt lat="47.11682528" lon="6.82868159"><ele></ele><time>2014-4-24T11:41:36Z</time></trkpt>
<trkpt lat="47.11623951" lon="6.82847743"><ele></ele><time>2014-4-24T11:41:39Z</time></trkpt>
<trkpt lat="47.11484541" lon="6.82850648"><ele></ele><time>2014-4-24T11:41:42Z</time></trkpt>
<trkpt lat="47.11425246" lon="6.82864500"><ele></ele><time>2014-4-24T11:41:45Z</time></trkpt>
<trkpt lat="47.11313887" lon="6.82898708"><ele></ele><time>2014-4-24T11:41:48Z</time></trkpt>
<trkpt lat="47.11272407" lon="6.82879416"><ele></ele><time>2014-4-24T11:41:51Z</time></trkpt>
<trkpt lat="47.11146997" lon="6.82808376"><ele></ele><time>2014-4-24T11:41:54Z</time></trkpt>
<trkpt lat="47.11042309" lon="6.82743691"><ele></ele><time>2014-4-24T11:41:57Z</time></trkpt>
<trkpt lat="47.10943910" lon="6.82677619"><ele></ele><time>2014-4-24T11:42:0Z</time></trkpt>
<trkpt lat="47.10821239" lon="6.82614463"><ele></ele><time>2014-4-24T11:42:3Z</time></trkpt>
<trkpt lat="47.10668808" lon="6.82537157"><ele></ele><time>2014-4-24T11:42:6Z</time></trkpt>
<trkpt lat="47.10636322" lon="6.82517767"><ele></ele><time>2014-4-24T11:42:9Z</time></trkpt>
<trkpt lat="47.10533002" lon="6.82372715"><ele></ele><time>2014-4-24T11:42:12Z</time></trkpt>
<trkpt lat="47.10492491" lon="6.82366593"><ele></ele><time>2014-4-24T11:42:15Z</time></trkpt>
<trkpt lat="47.10344312" lon="6.82580392"><ele></ele><time>2014-4-24T11:42:18Z</time></trkpt>
<trkpt lat="47.10199201" lon="6.82358102"><ele></ele><time>2014-4-24T11:42:21Z</time></trkpt>
<trkpt lat="47.10039386" lon="6.82582561"><ele></ele><time>2014-4-24T11:42:24Z</time></trkpt>
<trkpt lat="47.09880544" lon="6.82315655"><ele></ele><time>2014-4-24T11:42:27Z</time></trkpt>
<trkpt lat="47.09822529" lon="6.82400625"><ele></ele><time>2014-4-24T11:42:30Z</time></trkpt>
</trkseg></trk></gpx>